createdAt,value
2023-04-28T00:01:04.673Z,9.50
2023-04-28T00:04:12.172Z,4.80
2023-04-28T00:07:17.082Z,6.30
2023-04-28T00:10:23.666Z,7.40
2023-04-28T00:13:36.006Z,6.77
2023-04-28T00:16:43.116Z,4.57
2023-04-28T00:19:49.992Z,5.53
2023-04-28T00:22:54.362Z,5.07
2023-04-28T00:26:00.022Z,6.90
2023-04-28T00:29:08.777Z,6.33
2023-04-28T00:32:17.268Z,9.97
2023-04-28T00:35:24.120Z,4.70
2023-04-28T00:38:28.252Z,5.53
2023-04-28T00:41:36.592Z,5.63
2023-04-28T00:44:49.154Z,5.10
2023-04-28T00:47:53.453Z,5.23
2023-04-28T00:51:00.662Z,5.20
2023-04-28T00:54:07.202Z,5.20
2023-04-28T00:57:15.647Z,4.73
2023-04-28T01:00:21.164Z,4.90
2023-04-28T01:03:25.871Z,5.20
2023-04-28T01:06:31.114Z,5.40
2023-04-28T01:09:44.088Z,4.37
2023-04-28T01:12:58.014Z,7.93
2023-04-28T01:16:05.314Z,5.93
2023-04-28T01:19:13.661Z,5.23
2023-04-28T01:22:18.440Z,4.33
2023-04-28T01:25:32.570Z,5.33
2023-04-28T01:28:38.953Z,6.20
2023-04-28T01:31:44.448Z,10.37
2023-04-28T01:34:48.980Z,5.97
2023-04-28T01:38:03.269Z,5.60
2023-04-28T01:41:08.286Z,5.50
2023-04-28T01:44:24.316Z,6.23
2023-04-28T01:47:28.679Z,6.37
2023-04-28T01:50:35.435Z,5.93
2023-04-28T01:53:47.235Z,5.93
2023-04-28T01:56:52.995Z,5.73
2023-04-28T01:59:57.232Z,5.83
2023-04-28T02:03:03.160Z,5.97
2023-04-28T02:06:08.966Z,5.67
2023-04-28T02:09:17.043Z,6.43
2023-04-28T02:12:23.296Z,4.63
2023-04-28T02:15:27.596Z,5.20
2023-04-28T02:18:31.851Z,6.53
2023-04-28T02:21:36.424Z,5.30
2023-04-28T02:24:43.122Z,5.63
2023-04-28T02:27:49.341Z,5.70
2023-04-28T02:30:53.472Z,5.30
2023-04-28T02:33:58.024Z,5.70
2023-04-28T02:37:03.164Z,7.67
2023-04-28T02:40:13.809Z,5.70
2023-04-28T02:43:24.472Z,6.53
2023-04-28T02:46:28.862Z,5.50
2023-04-28T02:49:35.925Z,7.20
2023-04-28T02:52:43.822Z,5.17
2023-04-28T02:55:51.304Z,9.63
2023-04-28T02:59:03.857Z,5.27
2023-04-28T03:02:12.814Z,5.43
2023-04-28T03:05:17.959Z,6.53
2023-04-28T03:08:29.256Z,6.17
2023-04-28T03:11:33.934Z,6.30
2023-04-28T03:14:43.980Z,6.97
2023-04-28T03:17:48.700Z,8.30
2023-04-28T03:20:55.985Z,5.80
2023-04-28T03:24:05.783Z,5.73
2023-04-28T03:27:15.299Z,8.90
2023-04-28T03:30:28.550Z,5.60
2023-04-28T03:33:42.819Z,5.40
2023-04-28T03:36:50.367Z,6.30
2023-04-28T03:39:54.477Z,6.03
2023-04-28T03:42:59.344Z,8.30
2023-04-28T03:46:15.877Z,11.23
2023-04-28T03:49:20.501Z,7.23
2023-04-28T03:52:24.229Z,6.93
2023-04-28T03:55:35.506Z,7.60
2023-04-28T03:58:41.242Z,9.90
2023-04-28T04:01:45.699Z,10.20
2023-04-28T04:04:50.963Z,9.53
2023-04-28T04:07:54.650Z,8.03
2023-04-28T04:10:59.451Z,7.73
2023-04-28T04:14:04.092Z,6.20
2023-04-28T04:17:10.803Z,8.53
2023-04-28T04:20:15.594Z,7.63
2023-04-28T04:23:19.861Z,6.27
2023-04-28T04:26:25.324Z,6.10
2023-04-28T04:29:29.804Z,10.50
2023-04-28T04:32:36.477Z,8.80
2023-04-28T04:35:46.277Z,6.60
2023-04-28T04:38:52.549Z,7.73
2023-04-28T04:41:59.319Z,10.47
2023-04-28T04:45:04.852Z,8.10
2023-04-28T04:48:14.639Z,6.50
2023-04-28T04:51:27.098Z,5.93
2023-04-28T04:54:31.549Z,7.00
2023-04-28T04:57:44.455Z,7.60
2023-04-28T05:00:51.229Z,7.90
2023-04-28T05:03:55.981Z,6.60
2023-04-28T05:07:08.045Z,5.70
2023-04-28T05:10:12.928Z,7.07
2023-04-28T05:13:16.130Z,7.67
2023-04-28T05:16:28.346Z,11.20
2023-04-28T05:19:35.477Z,9.00
2023-04-28T05:22:43.904Z,7.97
2023-04-28T05:25:48.405Z,9.30
2023-04-28T05:29:02.357Z,7.27
2023-04-28T05:32:09.225Z,7.37
2023-04-28T05:35:15.681Z,6.03
2023-04-28T05:38:23.231Z,7.67
2023-04-28T05:41:30.519Z,8.80
2023-04-28T05:44:39.770Z,7.90
2023-04-28T05:47:45.056Z,11.37
2023-04-28T05:50:51.010Z,8.67
2023-04-28T05:53:55.609Z,7.60
2023-04-28T05:57:01.486Z,5.67
2023-04-28T06:00:09.011Z,6.80
2023-04-28T06:03:15.285Z,6.13
2023-04-28T06:06:24.291Z,5.47
2023-04-28T06:09:29.932Z,6.03
2023-04-28T06:12:42.974Z,9.93
2023-04-28T06:15:47.432Z,7.30
2023-04-28T06:18:54.243Z,9.20
2023-04-28T06:22:03.023Z,7.67
2023-04-28T06:25:10.666Z,8.50
2023-04-28T06:28:18.370Z,8.63
2023-04-28T06:31:25.568Z,5.70
2023-04-28T06:34:31.274Z,6.83
2023-04-28T06:37:42.396Z,10.10
2023-04-28T06:40:47.091Z,7.30
2023-04-28T06:43:54.226Z,8.13
2023-04-28T06:46:58.787Z,6.53
2023-04-28T06:50:05.750Z,6.83
2023-04-28T06:53:12.520Z,9.57
2023-04-28T06:56:22.577Z,5.90
2023-04-28T06:59:27.249Z,6.40
2023-04-28T07:02:33.356Z,6.93
2023-04-28T07:05:38.139Z,9.27
2023-04-28T07:08:56.802Z,5.97
2023-04-28T07:12:03.812Z,8.13
2023-04-28T07:15:11.040Z,5.80
2023-04-28T07:18:15.853Z,10.20
2023-04-28T07:21:28.035Z,6.53
2023-04-28T07:24:34.321Z,6.00
2023-04-28T07:27:38.941Z,7.90
2023-04-28T07:30:48.010Z,7.13
2023-04-28T07:33:57.890Z,6.20
2023-04-28T07:37:05.544Z,7.30
2023-04-28T07:40:13.219Z,6.47
2023-04-28T07:43:20.046Z,7.07
2023-04-28T07:46:34.068Z,6.90
2023-04-28T07:49:40.789Z,5.77
2023-04-28T07:52:50.837Z,4.87
2023-04-28T07:55:56.797Z,8.60
2023-04-28T07:59:01.701Z,6.07
2023-04-28T08:02:15.281Z,6.60
2023-04-28T08:05:25.466Z,6.83
2023-04-28T08:08:31.388Z,7.33
2023-04-28T08:11:38.979Z,8.73
2023-04-28T08:14:47.975Z,7.80
2023-04-28T08:17:55.551Z,7.90
2023-04-28T08:21:00.193Z,11.80
2023-04-28T08:24:04.533Z,6.93
2023-04-28T08:27:11.901Z,12.93
2023-04-28T08:30:23.514Z,6.73
2023-04-28T08:33:28.463Z,10.27
2023-04-28T08:36:36.287Z,7.47
2023-04-28T08:39:51.061Z,9.27
2023-04-28T08:43:04.614Z,11.13
2023-04-28T08:46:11.824Z,10.73
2023-04-28T08:49:20.679Z,7.50
2023-04-28T08:52:27.361Z,8.70
2023-04-28T08:55:33.568Z,6.53
2023-04-28T08:58:43.144Z,8.53
2023-04-28T09:01:53.536Z,9.90
2023-04-28T09:04:58.373Z,12.90
2023-04-28T09:08:19.845Z,8.17
2023-04-28T09:11:25.118Z,6.87
2023-04-28T09:14:33.404Z,7.10
2023-04-28T09:17:52.474Z,10.10
2023-04-28T09:21:05.600Z,7.63
2023-04-28T09:24:11.230Z,6.40
2023-04-28T09:27:15.907Z,9.20
2023-04-28T09:30:43.720Z,8.33
2023-04-28T09:34:00.202Z,6.13
2023-04-28T09:37:17.685Z,7.40
2023-04-28T09:40:26.378Z,10.00
2023-04-28T09:43:35.034Z,8.03
2023-04-28T09:46:46.072Z,7.93
2023-04-28T09:50:03.682Z,8.93
2023-04-28T09:53:12.454Z,8.20
2023-04-28T09:56:21.801Z,10.10
2023-04-28T09:59:26.356Z,4.73
2023-04-28T10:02:45.595Z,8.03
2023-04-28T10:05:51.214Z,7.37
2023-04-28T10:08:59.102Z,5.77
2023-04-28T10:12:05.349Z,7.37
2023-04-28T10:15:15.028Z,8.30
2023-04-28T10:18:23.080Z,8.00
2023-04-28T10:21:30.024Z,7.13
2023-04-28T10:24:36.980Z,7.77
2023-04-28T10:27:43.686Z,7.47
2023-04-28T10:31:13.084Z,7.60
2023-04-28T10:34:32.417Z,9.13
2023-04-28T10:38:10.110Z,9.57
2023-04-28T10:41:33.439Z,7.93
2023-04-28T10:44:46.724Z,7.43
2023-04-28T10:48:11.609Z,10.77
2023-04-28T10:51:37.704Z,8.60
2023-04-28T10:54:43.509Z,8.47
2023-04-28T10:57:48.162Z,8.17
2023-04-28T11:00:55.339Z,8.20
2023-04-28T11:04:06.678Z,8.70
2023-04-28T11:07:25.018Z,8.27
2023-04-28T11:11:08.957Z,8.80
2023-04-28T11:14:40.698Z,8.17
2023-04-28T11:17:52.122Z,8.60
2023-04-28T11:21:01.873Z,8.23
2023-04-28T11:24:12.655Z,9.23
2023-04-28T11:27:26.102Z,8.37
2023-04-28T11:30:32.354Z,13.07
2023-04-28T11:33:39.438Z,9.07
2023-04-28T11:36:44.444Z,11.53
2023-04-28T11:39:50.676Z,10.67
2023-04-28T11:42:58.381Z,9.60
2023-04-28T11:46:04.492Z,8.90
2023-04-28T11:49:18.042Z,9.87
2023-04-28T11:52:25.110Z,8.77
2023-04-28T11:55:31.679Z,9.70
2023-04-28T11:58:37.344Z,9.83
2023-04-28T12:01:49.690Z,10.20
2023-04-28T12:04:55.980Z,10.93
2023-04-28T12:08:03.113Z,9.37
2023-04-28T12:11:20.105Z,9.57
2023-04-28T12:14:25.634Z,9.00
2023-04-28T12:17:35.122Z,7.70
2023-04-28T12:20:41.657Z,8.43
2023-04-28T12:23:46.110Z,9.93
2023-04-28T12:26:54.471Z,9.10
2023-04-28T12:29:58.796Z,11.40
2023-04-28T12:33:05.604Z,11.63
2023-04-28T12:36:12.276Z,9.80
2023-04-28T12:39:20.403Z,9.90
2023-04-28T12:42:29.343Z,9.63
2023-04-28T12:45:35.585Z,10.47
2023-04-28T12:48:55.656Z,12.60
2023-04-28T12:52:14.492Z,8.00
2023-04-28T12:55:24.726Z,10.33
2023-04-28T12:58:34.429Z,9.70
2023-04-28T13:01:42.392Z,8.97
2023-04-28T13:04:47.858Z,8.23
2023-04-28T13:07:52.830Z,9.40
2023-04-28T13:11:22.610Z,8.97
2023-04-28T13:14:29.656Z,8.50
2023-04-28T13:17:35.739Z,10.80
2023-04-28T13:20:43.902Z,16.07
2023-04-28T13:23:50.083Z,9.87
2023-04-28T13:26:55.086Z,15.10
2023-04-28T13:30:00.764Z,9.00
2023-04-28T13:33:06.109Z,10.13
2023-04-28T13:36:10.886Z,9.63
2023-04-28T13:39:15.333Z,10.47
2023-04-28T13:42:19.883Z,10.50
2023-04-28T13:45:29.746Z,9.67
2023-04-28T13:48:36.864Z,9.83
2023-04-28T13:51:42.084Z,10.53
2023-04-28T13:54:50.015Z,8.80
2023-04-28T13:57:54.082Z,10.30
2023-04-28T14:01:00.457Z,9.70
2023-04-28T14:04:06.382Z,10.80
2023-04-28T14:07:14.246Z,9.10
2023-04-28T14:10:20.096Z,10.70
2023-04-28T14:13:24.748Z,9.90
2023-04-28T14:16:38.530Z,9.47
2023-04-28T14:19:46.199Z,12.17
2023-04-28T14:22:50.829Z,11.27
2023-04-28T14:25:58.326Z,10.90
2023-04-28T14:29:03.399Z,8.67
2023-04-28T14:32:09.147Z,9.87
2023-04-28T14:35:22.822Z,10.70
2023-04-28T14:38:29.068Z,9.53
2023-04-28T14:41:43.512Z,10.43
2023-04-28T14:44:48.124Z,8.33
2023-04-28T14:47:58.422Z,9.20
2023-04-28T14:51:06.237Z,8.57
2023-04-28T14:54:18.684Z,9.20
2023-04-28T14:57:23.862Z,8.37
2023-04-28T15:00:27.589Z,9.50
2023-04-28T15:03:47.632Z,10.03
2023-04-28T15:06:54.510Z,10.20
2023-04-28T15:10:00.988Z,9.30
2023-04-28T15:13:06.160Z,10.77
2023-04-28T15:16:20.275Z,12.20
2023-04-28T15:19:25.954Z,10.20
2023-04-28T15:22:30.554Z,9.50
2023-04-28T15:25:35.044Z,11.87
2023-04-28T15:28:43.535Z,10.37
2023-04-28T15:31:51.617Z,10.83
2023-04-28T15:34:57.724Z,8.67
2023-04-28T15:38:04.176Z,8.73
2023-04-28T15:41:10.246Z,11.60
2023-04-28T15:44:15.966Z,12.23
2023-04-28T15:47:23.790Z,10.00
2023-04-28T15:50:30.398Z,10.30
2023-04-28T15:53:35.703Z,10.17
2023-04-28T15:56:45.200Z,10.90
2023-04-28T15:59:51.998Z,10.57
2023-04-28T16:02:59.354Z,10.30
2023-04-28T16:06:17.500Z,9.13
2023-04-28T16:09:23.300Z,14.43
2023-04-28T16:12:37.681Z,11.27
2023-04-28T16:15:43.616Z,9.67
2023-04-28T16:18:50.702Z,11.20
2023-04-28T16:21:59.698Z,12.20
2023-04-28T16:25:06.833Z,14.77
2023-04-28T16:28:14.650Z,10.33
2023-04-28T16:31:21.588Z,10.27
2023-04-28T16:34:26.362Z,10.43
2023-04-28T16:37:41.257Z,10.60
2023-04-28T16:40:46.089Z,13.03
2023-04-28T16:43:59.633Z,12.37
2023-04-28T16:47:05.459Z,11.73
2023-04-28T16:50:14.838Z,12.33
2023-04-28T16:53:26.755Z,12.87
2023-04-28T16:56:41.330Z,13.20
2023-04-28T16:59:45.973Z,13.40
2023-04-28T17:02:50.534Z,12.77
2023-04-28T17:06:03.030Z,12.93
2023-04-28T17:09:10.080Z,12.23
2023-04-28T17:12:16.501Z,13.73
2023-04-28T17:15:29.286Z,11.33
2023-04-28T17:18:35.047Z,12.80
2023-04-28T17:21:42.433Z,12.70
2023-04-28T17:24:54.236Z,11.00
2023-04-28T17:27:59.911Z,12.37
2023-04-28T17:31:07.414Z,12.87
2023-04-28T17:34:12.745Z,12.77
2023-04-28T17:37:20.814Z,11.43
2023-04-28T17:40:42.948Z,12.03
2023-04-28T17:43:49.090Z,16.80
2023-04-28T17:46:58.269Z,12.20
2023-04-28T17:50:05.093Z,13.43
2023-04-28T17:53:14.817Z,14.47
2023-04-28T17:56:24.009Z,13.43
2023-04-28T17:59:28.463Z,13.40
2023-04-28T18:02:32.895Z,11.57
2023-04-28T18:05:41.913Z,12.47
2023-04-28T18:08:54.622Z,13.90
2023-04-28T18:12:07.072Z,13.27
2023-04-28T18:15:13.067Z,14.10
2023-04-28T18:18:18.031Z,14.13
2023-04-28T18:21:29.302Z,14.00
2023-04-28T18:24:35.051Z,18.83
2023-04-28T18:27:42.842Z,15.03
2023-04-28T18:30:46.935Z,15.37
2023-04-28T18:33:56.331Z,14.33
2023-04-28T18:37:12.388Z,16.73
2023-04-28T18:40:19.705Z,14.77
2023-04-28T18:43:29.654Z,18.13
2023-04-28T18:46:40.191Z,19.60
2023-04-28T18:49:45.387Z,17.20
2023-04-28T18:52:51.575Z,14.60
2023-04-28T18:55:57.255Z,13.77
2023-04-28T18:59:09.280Z,15.83
2023-04-28T19:02:14.739Z,17.07
2023-04-28T19:05:31.605Z,17.10
2023-04-28T19:08:49.506Z,15.90
2023-04-28T19:11:56.487Z,18.40
2023-04-28T19:15:06.173Z,16.80
2023-04-28T19:18:21.834Z,16.70
2023-04-28T19:21:27.762Z,18.87
2023-04-28T19:24:43.431Z,17.37
2023-04-28T19:27:50.352Z,15.37
2023-04-28T19:31:10.620Z,16.03
2023-04-28T19:34:18.726Z,16.13
2023-04-28T19:37:27.144Z,16.87
2023-04-28T19:40:41.753Z,14.93
2023-04-28T19:43:46.728Z,14.13
2023-04-28T19:47:10.109Z,17.37
2023-04-28T19:50:16.461Z,16.37
2023-04-28T19:53:21.970Z,17.53
2023-04-28T19:56:27.487Z,15.83
2023-04-28T19:59:35.331Z,16.67
2023-04-28T20:02:42.170Z,15.17
2023-04-28T20:05:50.307Z,14.97
2023-04-28T20:08:55.766Z,16.73
2023-04-28T20:12:01.067Z,15.20
2023-04-28T20:15:11.755Z,15.47
2023-04-28T20:18:46.483Z,17.07
2023-04-28T20:21:52.655Z,16.10
2023-04-28T20:25:04.868Z,14.83
2023-04-28T20:28:10.521Z,16.50
2023-04-28T20:31:26.449Z,16.60
2023-04-28T20:34:48.926Z,18.47
2023-04-28T20:37:59.871Z,15.80
2023-04-28T20:41:11.293Z,16.17
2023-04-28T20:44:17.465Z,15.93
2023-04-28T20:47:21.991Z,16.03
2023-04-28T20:50:33.653Z,19.03
2023-04-28T20:53:42.986Z,16.50
2023-04-28T20:56:47.307Z,17.73
2023-04-28T20:59:52.108Z,14.90
2023-04-28T21:02:57.384Z,16.20
2023-04-28T21:06:04.247Z,15.50
2023-04-28T21:09:08.893Z,17.07
2023-04-28T21:12:14.996Z,16.80
2023-04-28T21:15:19.297Z,14.67
2023-04-28T21:18:26.047Z,15.80
2023-04-28T21:21:39.546Z,15.43
2023-04-28T21:24:46.626Z,13.97
2023-04-28T21:27:53.171Z,15.53
2023-04-28T21:30:57.526Z,15.63
2023-04-28T21:34:09.570Z,15.77
2023-04-28T21:37:15.408Z,13.83
2023-04-28T21:40:19.850Z,14.20
2023-04-28T21:43:25.932Z,15.20
2023-04-28T21:46:30.251Z,15.23
2023-04-28T21:49:38.853Z,16.07
2023-04-28T21:52:54.129Z,14.97
2023-04-28T21:55:58.857Z,14.50
2023-04-28T21:59:04.469Z,15.83
2023-04-28T22:02:09.400Z,13.50
2023-04-28T22:05:16.793Z,13.93
2023-04-28T22:08:27.491Z,15.80
2023-04-28T22:11:32.535Z,20.70
2023-04-28T22:14:45.495Z,15.30
2023-04-28T22:17:51.427Z,13.57
2023-04-28T22:20:55.972Z,15.63
2023-04-28T22:24:02.061Z,14.27
2023-04-28T22:27:10.097Z,15.30
2023-04-28T22:30:17.143Z,14.60
2023-04-28T22:33:32.105Z,15.30
2023-04-28T22:36:45.386Z,16.80
2023-04-28T22:39:54.715Z,13.40
2023-04-28T22:42:59.541Z,12.67
2023-04-28T22:46:06.789Z,12.87
2023-04-28T22:49:18.657Z,13.63
2023-04-28T22:52:31.252Z,14.20
2023-04-28T22:55:42.864Z,13.63
2023-04-28T22:58:46.678Z,16.33
2023-04-28T23:01:53.435Z,14.77
2023-04-28T23:04:58.131Z,13.80
2023-04-28T23:08:10.452Z,12.40
2023-04-28T23:11:16.479Z,13.33
2023-04-28T23:14:25.389Z,14.20
2023-04-28T23:17:40.531Z,12.87
2023-04-28T23:20:45.378Z,12.50
2023-04-28T23:23:49.585Z,12.63
2023-04-28T23:26:56.913Z,14.37
2023-04-28T23:30:01.411Z,15.00
2023-04-28T23:33:06.536Z,12.77
2023-04-28T23:36:19.932Z,13.80
2023-04-28T23:39:24.785Z,12.97
2023-04-28T23:42:35.073Z,12.00
2023-04-28T23:45:43.447Z,11.77
2023-04-28T23:48:48.056Z,12.07
2023-04-28T23:51:56.550Z,12.27
2023-04-28T23:55:03.461Z,12.20
2023-04-28T23:58:09.406Z,13.07
